sensor_id;sensor_type;location;lat;lon;timestamp;P1;durP1;ratioP1;P2;durP2;ratioP2
6999;SDS011;3540;53.242;10.408;2023-06-14T00:00:39;7.77;;;3.07;;
6999;SDS011;3540;53.242;10.408;2023-06-14T00:03:09;5.80;;;3.40;;
6999;SDS011;3540;53.242;10.408;2023-06-14T00:05:36;6.83;;;3.50;;
6999;SDS011;3540;53.242;10.408;2023-06-14T00:08:06;6.37;;;3.10;;
6999;SDS011;3540;53.242;10.408;2023-06-14T00:10:33;7.03;;;3.97;;
6999;SDS011;3540;53.242;10.408;2023-06-14T00:13:01;9.20;;;3.43;;
6999;SDS011;3540;53.242;10.408;2023-06-14T00:15:27;6.47;;;3.00;;
6999;SDS011;3540;53.242;10.408;2023-06-14T00:17:53;6.70;;;3.50;;
6999;SDS011;3540;53.242;10.408;2023-06-14T00:20:20;8.17;;;3.37;;
6999;SDS011;3540;53.242;10.408;2023-06-14T00:22:46;5.40;;;3.00;;
6999;SDS011;3540;53.242;10.408;2023-06-14T00:25:11;5.63;;;3.40;;
6999;SDS011;3540;53.242;10.408;2023-06-14T00:27:37;6.17;;;3.20;;
6999;SDS011;3540;53.242;10.408;2023-06-14T00:30:03;6.43;;;3.13;;
6999;SDS011;3540;53.242;10.408;2023-06-14T00:32:29;7.00;;;3.00;;
6999;SDS011;3540;53.242;10.408;2023-06-14T00:34:54;6.10;;;3.10;;
6999;SDS011;3540;53.242;10.408;2023-06-14T00:37:20;10.33;;;3.60;;
6999;SDS011;3540;53.242;10.408;2023-06-14T00:39:46;8.37;;;3.17;;
6999;SDS011;3540;53.242;10.408;2023-06-14T00:42:11;4.90;;;2.93;;
6999;SDS011;3540;53.242;10.408;2023-06-14T00:44:48;5.90;;;3.10;;
6999;SDS011;3540;53.242;10.408;2023-06-14T00:47:14;4.90;;;3.00;;
6999;SDS011;3540;53.242;10.408;2023-06-14T00:49:40;8.37;;;3.60;;
6999;SDS011;3540;53.242;10.408;2023-06-14T00:52:05;7.77;;;3.30;;
6999;SDS011;3540;53.242;10.408;2023-06-14T00:54:31;8.53;;;3.57;;
6999;SDS011;3540;53.242;10.408;2023-06-14T00:56:57;8.60;;;3.20;;
6999;SDS011;3540;53.242;10.408;2023-06-14T00:59:23;5.73;;;2.90;;
6999;SDS011;3540;53.242;10.408;2023-06-14T01:01:49;7.10;;;3.40;;
6999;SDS011;3540;53.242;10.408;2023-06-14T01:04:14;5.13;;;3.07;;
6999;SDS011;3540;53.242;10.408;2023-06-14T01:09:14;9.60;;;3.43;;
6999;SDS011;3540;53.242;10.408;2023-06-14T01:11:59;8.03;;;3.30;;
6999;SDS011;3540;53.242;10.408;2023-06-14T01:14:31;7.97;;;3.43;;
6999;SDS011;3540;53.242;10.408;2023-06-14T01:16:58;10.07;;;3.73;;
6999;SDS011;3540;53.242;10.408;2023-06-14T01:19:25;12.00;;;3.90;;
6999;SDS011;3540;53.242;10.408;2023-06-14T01:21:53;9.07;;;3.23;;
6999;SDS011;3540;53.242;10.408;2023-06-14T01:24:20;6.60;;;3.20;;
6999;SDS011;3540;53.242;10.408;2023-06-14T01:26:50;6.87;;;3.40;;
6999;SDS011;3540;53.242;10.408;2023-06-14T01:29:20;5.60;;;3.07;;
6999;SDS011;3540;53.242;10.408;2023-06-14T01:31:47;7.73;;;3.07;;
6999;SDS011;3540;53.242;10.408;2023-06-14T01:34:13;4.97;;;3.33;;
6999;SDS011;3540;53.242;10.408;2023-06-14T01:36:40;8.77;;;2.90;;
6999;SDS011;3540;53.242;10.408;2023-06-14T01:39:09;7.80;;;3.10;;
6999;SDS011;3540;53.242;10.408;2023-06-14T01:41:38;8.63;;;3.40;;
6999;SDS011;3540;53.242;10.408;2023-06-14T01:44:05;6.20;;;2.90;;
6999;SDS011;3540;53.242;10.408;2023-06-14T01:46:31;7.50;;;3.00;;
6999;SDS011;3540;53.242;10.408;2023-06-14T01:48:57;8.63;;;3.20;;
6999;SDS011;3540;53.242;10.408;2023-06-14T01:51:22;7.07;;;3.20;;
6999;SDS011;3540;53.242;10.408;2023-06-14T01:53:48;4.80;;;3.20;;
6999;SDS011;3540;53.242;10.408;2023-06-14T01:56:14;5.23;;;3.27;;
6999;SDS011;3540;53.242;10.408;2023-06-14T01:58:39;7.97;;;3.40;;
6999;SDS011;3540;53.242;10.408;2023-06-14T02:01:05;5.50;;;2.80;;
6999;SDS011;3540;53.242;10.408;2023-06-14T02:03:31;8.17;;;3.20;;
6999;SDS011;3540;53.242;10.408;2023-06-14T02:05:57;7.70;;;3.47;;
6999;SDS011;3540;53.242;10.408;2023-06-14T02:08:23;5.97;;;3.20;;
6999;SDS011;3540;53.242;10.408;2023-06-14T02:10:49;5.87;;;2.93;;
6999;SDS011;3540;53.242;10.408;2023-06-14T02:13:15;4.70;;;3.17;;
6999;SDS011;3540;53.242;10.408;2023-06-14T02:15:40;4.87;;;3.27;;
6999;SDS011;3540;53.242;10.408;2023-06-14T02:18:08;4.47;;;3.20;;
6999;SDS011;3540;53.242;10.408;2023-06-14T02:20:35;5.47;;;3.10;;
6999;SDS011;3540;53.242;10.408;2023-06-14T02:23:00;6.97;;;3.30;;
6999;SDS011;3540;53.242;10.408;2023-06-14T02:25:26;5.53;;;3.10;;
6999;SDS011;3540;53.242;10.408;2023-06-14T02:27:55;6.63;;;3.40;;
6999;SDS011;3540;53.242;10.408;2023-06-14T02:30:21;5.03;;;3.30;;
6999;SDS011;3540;53.242;10.408;2023-06-14T02:32:47;6.23;;;3.33;;
6999;SDS011;3540;53.242;10.408;2023-06-14T02:35:13;5.23;;;3.30;;
6999;SDS011;3540;53.242;10.408;2023-06-14T02:37:39;6.33;;;3.33;;
6999;SDS011;3540;53.242;10.408;2023-06-14T02:40:05;6.63;;;3.30;;
6999;SDS011;3540;53.242;10.408;2023-06-14T02:42:31;4.80;;;2.97;;
6999;SDS011;3540;53.242;10.408;2023-06-14T02:44:56;6.23;;;3.47;;
6999;SDS011;3540;53.242;10.408;2023-06-14T02:47:22;6.17;;;3.17;;
6999;SDS011;3540;53.242;10.408;2023-06-14T02:49:47;6.73;;;3.87;;
6999;SDS011;3540;53.242;10.408;2023-06-14T02:52:13;8.00;;;3.70;;
6999;SDS011;3540;53.242;10.408;2023-06-14T02:54:39;7.07;;;3.33;;
6999;SDS011;3540;53.242;10.408;2023-06-14T02:57:05;9.73;;;3.97;;
6999;SDS011;3540;53.242;10.408;2023-06-14T02:59:32;8.87;;;3.83;;
6999;SDS011;3540;53.242;10.408;2023-06-14T03:01:58;11.40;;;3.90;;
6999;SDS011;3540;53.242;10.408;2023-06-14T03:04:24;7.57;;;3.60;;
6999;SDS011;3540;53.242;10.408;2023-06-14T03:06:51;10.27;;;4.00;;
6999;SDS011;3540;53.242;10.408;2023-06-14T03:09:18;11.43;;;4.03;;
6999;SDS011;3540;53.242;10.408;2023-06-14T03:11:45;8.67;;;3.60;;
6999;SDS011;3540;53.242;10.408;2023-06-14T03:14:10;6.20;;;3.77;;
6999;SDS011;3540;53.242;10.408;2023-06-14T03:16:38;7.67;;;4.07;;
6999;SDS011;3540;53.242;10.408;2023-06-14T03:19:04;9.10;;;3.93;;
6999;SDS011;3540;53.242;10.408;2023-06-14T03:21:29;13.37;;;3.97;;
6999;SDS011;3540;53.242;10.408;2023-06-14T03:23:55;6.80;;;3.63;;
6999;SDS011;3540;53.242;10.408;2023-06-14T03:26:21;4.53;;;3.13;;
6999;SDS011;3540;53.242;10.408;2023-06-14T03:28:47;6.70;;;3.40;;
6999;SDS011;3540;53.242;10.408;2023-06-14T03:31:16;8.00;;;3.50;;
6999;SDS011;3540;53.242;10.408;2023-06-14T03:33:42;9.93;;;3.93;;
6999;SDS011;3540;53.242;10.408;2023-06-14T03:36:07;8.90;;;4.07;;
6999;SDS011;3540;53.242;10.408;2023-06-14T03:38:33;7.80;;;3.60;;
6999;SDS011;3540;53.242;10.408;2023-06-14T03:40:59;9.23;;;4.00;;
6999;SDS011;3540;53.242;10.408;2023-06-14T03:43:25;12.03;;;3.80;;
6999;SDS011;3540;53.242;10.408;2023-06-14T03:45:51;9.23;;;3.77;;
6999;SDS011;3540;53.242;10.408;2023-06-14T03:48:17;7.27;;;4.07;;
6999;SDS011;3540;53.242;10.408;2023-06-14T03:50:43;11.53;;;4.10;;
6999;SDS011;3540;53.242;10.408;2023-06-14T03:53:09;9.93;;;4.33;;
6999;SDS011;3540;53.242;10.408;2023-06-14T03:55:35;8.60;;;4.23;;
6999;SDS011;3540;53.242;10.408;2023-06-14T03:58:02;5.73;;;3.60;;
6999;SDS011;3540;53.242;10.408;2023-06-14T04:00:28;6.83;;;4.03;;
6999;SDS011;3540;53.242;10.408;2023-06-14T04:02:54;7.33;;;3.80;;
6999;SDS011;3540;53.242;10.408;2023-06-14T04:05:19;6.00;;;3.87;;
6999;SDS011;3540;53.242;10.408;2023-06-14T04:07:45;9.60;;;4.13;;
6999;SDS011;3540;53.242;10.408;2023-06-14T04:10:14;8.77;;;3.83;;
6999;SDS011;3540;53.242;10.408;2023-06-14T04:12:41;11.30;;;4.30;;
6999;SDS011;3540;53.242;10.408;2023-06-14T04:15:07;9.17;;;4.20;;
6999;SDS011;3540;53.242;10.408;2023-06-14T04:17:34;9.57;;;4.40;;
6999;SDS011;3540;53.242;10.408;2023-06-14T04:20:00;8.30;;;4.40;;
6999;SDS011;3540;53.242;10.408;2023-06-14T04:22:28;8.50;;;4.47;;
6999;SDS011;3540;53.242;10.408;2023-06-14T04:24:55;9.57;;;4.40;;
6999;SDS011;3540;53.242;10.408;2023-06-14T04:27:24;7.37;;;4.27;;
6999;SDS011;3540;53.242;10.408;2023-06-14T04:29:54;11.90;;;4.87;;
6999;SDS011;3540;53.242;10.408;2023-06-14T04:32:27;7.27;;;4.50;;
6999;SDS011;3540;53.242;10.408;2023-06-14T04:34:54;11.30;;;4.70;;
6999;SDS011;3540;53.242;10.408;2023-06-14T04:37:23;11.43;;;4.53;;
6999;SDS011;3540;53.242;10.408;2023-06-14T04:39:49;11.93;;;4.70;;
6999;SDS011;3540;53.242;10.408;2023-06-14T04:42:15;6.50;;;4.30;;
6999;SDS011;3540;53.242;10.408;2023-06-14T04:44:41;6.50;;;4.03;;
6999;SDS011;3540;53.242;10.408;2023-06-14T04:47:08;6.90;;;4.60;;
6999;SDS011;3540;53.242;10.408;2023-06-14T04:49:38;12.90;;;4.50;;
6999;SDS011;3540;53.242;10.408;2023-06-14T04:52:05;13.20;;;4.67;;
6999;SDS011;3540;53.242;10.408;2023-06-14T04:54:31;13.63;;;4.63;;
6999;SDS011;3540;53.242;10.408;2023-06-14T04:56:58;8.07;;;4.40;;
6999;SDS011;3540;53.242;10.408;2023-06-14T04:59:23;9.97;;;4.77;;
6999;SDS011;3540;53.242;10.408;2023-06-14T05:01:49;8.67;;;4.50;;
6999;SDS011;3540;53.242;10.408;2023-06-14T05:04:15;15.13;;;4.83;;
6999;SDS011;3540;53.242;10.408;2023-06-14T05:06:42;10.20;;;5.00;;
6999;SDS011;3540;53.242;10.408;2023-06-14T05:09:13;10.73;;;4.70;;
6999;SDS011;3540;53.242;10.408;2023-06-14T05:11:39;10.83;;;4.40;;
6999;SDS011;3540;53.242;10.408;2023-06-14T05:14:07;9.27;;;5.10;;
6999;SDS011;3540;53.242;10.408;2023-06-14T05:16:33;15.77;;;5.30;;
6999;SDS011;3540;53.242;10.408;2023-06-14T05:18:59;9.90;;;5.37;;
6999;SDS011;3540;53.242;10.408;2023-06-14T05:21:26;12.37;;;5.20;;
6999;SDS011;3540;53.242;10.408;2023-06-14T05:23:51;14.60;;;4.90;;
6999;SDS011;3540;53.242;10.408;2023-06-14T05:26:17;8.53;;;4.73;;
6999;SDS011;3540;53.242;10.408;2023-06-14T05:28:42;9.67;;;4.60;;
6999;SDS011;3540;53.242;10.408;2023-06-14T05:31:08;7.93;;;4.70;;
6999;SDS011;3540;53.242;10.408;2023-06-14T05:33:34;11.97;;;4.93;;
6999;SDS011;3540;53.242;10.408;2023-06-14T05:35:59;7.77;;;4.53;;
6999;SDS011;3540;53.242;10.408;2023-06-14T05:38:25;11.30;;;4.30;;
6999;SDS011;3540;53.242;10.408;2023-06-14T05:40:50;7.20;;;4.17;;
6999;SDS011;3540;53.242;10.408;2023-06-14T05:43:16;6.63;;;4.40;;
6999;SDS011;3540;53.242;10.408;2023-06-14T05:45:42;15.17;;;4.50;;
6999;SDS011;3540;53.242;10.408;2023-06-14T05:48:07;11.87;;;3.97;;
6999;SDS011;3540;53.242;10.408;2023-06-14T05:50:33;8.80;;;4.00;;
6999;SDS011;3540;53.242;10.408;2023-06-14T05:52:58;7.70;;;3.70;;
6999;SDS011;3540;53.242;10.408;2023-06-14T05:55:24;15.23;;;4.13;;
6999;SDS011;3540;53.242;10.408;2023-06-14T05:57:50;7.80;;;3.93;;
6999;SDS011;3540;53.242;10.408;2023-06-14T06:00:16;10.13;;;3.80;;
6999;SDS011;3540;53.242;10.408;2023-06-14T06:02:43;6.30;;;3.57;;
6999;SDS011;3540;53.242;10.408;2023-06-14T06:05:09;5.67;;;4.03;;
6999;SDS011;3540;53.242;10.408;2023-06-14T06:07:37;5.70;;;4.07;;
6999;SDS011;3540;53.242;10.408;2023-06-14T06:10:03;5.67;;;3.70;;
6999;SDS011;3540;53.242;10.408;2023-06-14T06:12:30;8.97;;;3.60;;
6999;SDS011;3540;53.242;10.408;2023-06-14T06:14:56;8.17;;;3.60;;
6999;SDS011;3540;53.242;10.408;2023-06-14T06:17:22;11.57;;;4.20;;
6999;SDS011;3540;53.242;10.408;2023-06-14T06:19:47;7.90;;;3.67;;
6999;SDS011;3540;53.242;10.408;2023-06-14T06:22:13;11.07;;;3.77;;
6999;SDS011;3540;53.242;10.408;2023-06-14T06:24:38;5.33;;;3.40;;
6999;SDS011;3540;53.242;10.408;2023-06-14T06:27:04;5.07;;;3.70;;
6999;SDS011;3540;53.242;10.408;2023-06-14T06:29:33;11.00;;;3.90;;
6999;SDS011;3540;53.242;10.408;2023-06-14T06:31:58;10.83;;;3.80;;
6999;SDS011;3540;53.242;10.408;2023-06-14T06:34:24;5.47;;;3.10;;
6999;SDS011;3540;53.242;10.408;2023-06-14T06:36:50;5.03;;;3.10;;
6999;SDS011;3540;53.242;10.408;2023-06-14T06:39:16;14.47;;;3.50;;
6999;SDS011;3540;53.242;10.408;2023-06-14T06:41:42;6.80;;;3.47;;
6999;SDS011;3540;53.242;10.408;2023-06-14T06:44:07;7.27;;;3.60;;
6999;SDS011;3540;53.242;10.408;2023-06-14T06:46:35;5.70;;;3.30;;
6999;SDS011;3540;53.242;10.408;2023-06-14T06:49:05;5.13;;;3.20;;
6999;SDS011;3540;53.242;10.408;2023-06-14T06:51:31;7.80;;;3.37;;
6999;SDS011;3540;53.242;10.408;2023-06-14T06:53:56;8.53;;;3.60;;
6999;SDS011;3540;53.242;10.408;2023-06-14T06:56:23;5.50;;;4.40;;
6999;SDS011;3540;53.242;10.408;2023-06-14T06:58:49;7.57;;;3.63;;
6999;SDS011;3540;53.242;10.408;2023-06-14T07:01:15;5.17;;;3.23;;
6999;SDS011;3540;53.242;10.408;2023-06-14T07:03:42;4.70;;;2.77;;
6999;SDS011;3540;53.242;10.408;2023-06-14T07:06:08;3.47;;;3.03;;
6999;SDS011;3540;53.242;10.408;2023-06-14T07:08:34;4.87;;;2.80;;
6999;SDS011;3540;53.242;10.408;2023-06-14T07:11:00;11.50;;;8.00;;
6999;SDS011;3540;53.242;10.408;2023-06-14T07:13:27;6.07;;;4.10;;
6999;SDS011;3540;53.242;10.408;2023-06-14T07:15:57;10.20;;;5.93;;
6999;SDS011;3540;53.242;10.408;2023-06-14T07:18:25;12.13;;;6.03;;
6999;SDS011;3540;53.242;10.408;2023-06-14T07:20:50;5.00;;;2.70;;
6999;SDS011;3540;53.242;10.408;2023-06-14T07:23:17;6.13;;;2.70;;
6999;SDS011;3540;53.242;10.408;2023-06-14T07:25:42;3.40;;;2.90;;
6999;SDS011;3540;53.242;10.408;2023-06-14T07:28:08;5.77;;;3.20;;
6999;SDS011;3540;53.242;10.408;2023-06-14T07:30:33;5.83;;;2.70;;
6999;SDS011;3540;53.242;10.408;2023-06-14T07:33:00;4.47;;;2.63;;
6999;SDS011;3540;53.242;10.408;2023-06-14T07:35:25;4.20;;;2.57;;
6999;SDS011;3540;53.242;10.408;2023-06-14T07:37:51;6.53;;;2.50;;
6999;SDS011;3540;53.242;10.408;2023-06-14T07:40:16;5.00;;;2.57;;
6999;SDS011;3540;53.242;10.408;2023-06-14T07:42:42;2.43;;;2.23;;
6999;SDS011;3540;53.242;10.408;2023-06-14T07:45:08;3.87;;;3.00;;
6999;SDS011;3540;53.242;10.408;2023-06-14T07:47:34;3.63;;;2.60;;
6999;SDS011;3540;53.242;10.408;2023-06-14T07:50:00;3.43;;;2.50;;
6999;SDS011;3540;53.242;10.408;2023-06-14T07:52:25;11.77;;;2.87;;
6999;SDS011;3540;53.242;10.408;2023-06-14T07:54:51;4.10;;;2.53;;
6999;SDS011;3540;53.242;10.408;2023-06-14T07:57:16;3.70;;;2.63;;
6999;SDS011;3540;53.242;10.408;2023-06-14T07:59:45;4.20;;;2.73;;
6999;SDS011;3540;53.242;10.408;2023-06-14T08:02:11;3.77;;;3.07;;
6999;SDS011;3540;53.242;10.408;2023-06-14T08:04:36;4.60;;;2.60;;
6999;SDS011;3540;53.242;10.408;2023-06-14T08:07:03;4.00;;;3.20;;
6999;SDS011;3540;53.242;10.408;2023-06-14T08:09:29;4.13;;;2.83;;
6999;SDS011;3540;53.242;10.408;2023-06-14T08:11:55;3.17;;;2.80;;
6999;SDS011;3540;53.242;10.408;2023-06-14T08:14:21;6.10;;;2.80;;
6999;SDS011;3540;53.242;10.408;2023-06-14T08:16:47;4.43;;;2.90;;
6999;SDS011;3540;53.242;10.408;2023-06-14T08:19:13;6.40;;;2.93;;
6999;SDS011;3540;53.242;10.408;2023-06-14T08:21:38;2.80;;;2.60;;
6999;SDS011;3540;53.242;10.408;2023-06-14T08:24:05;5.03;;;3.07;;
6999;SDS011;3540;53.242;10.408;2023-06-14T08:26:30;3.80;;;2.80;;
6999;SDS011;3540;53.242;10.408;2023-06-14T08:28:56;6.07;;;3.20;;
6999;SDS011;3540;53.242;10.408;2023-06-14T08:31:23;4.73;;;3.03;;
6999;SDS011;3540;53.242;10.408;2023-06-14T08:33:50;9.95;;;3.08;;
6999;SDS011;3540;53.242;10.408;2023-06-14T08:36:15;6.60;;;3.00;;
6999;SDS011;3540;53.242;10.408;2023-06-14T08:38:41;3.50;;;2.93;;
6999;SDS011;3540;53.242;10.408;2023-06-14T08:41:07;7.43;;;3.27;;
6999;SDS011;3540;53.242;10.408;2023-06-14T08:43:36;5.27;;;2.97;;
6999;SDS011;3540;53.242;10.408;2023-06-14T08:46:03;5.53;;;3.30;;
6999;SDS011;3540;53.242;10.408;2023-06-14T08:48:31;4.27;;;2.90;;
6999;SDS011;3540;53.242;10.408;2023-06-14T08:51:01;6.28;;;3.53;;
6999;SDS011;3540;53.242;10.408;2023-06-14T08:53:29;5.35;;;3.40;;
6999;SDS011;3540;53.242;10.408;2023-06-14T08:55:57;5.15;;;3.08;;
6999;SDS011;3540;53.242;10.408;2023-06-14T08:58:25;7.53;;;3.20;;
6999;SDS011;3540;53.242;10.408;2023-06-14T09:00:51;6.55;;;3.40;;
6999;SDS011;3540;53.242;10.408;2023-06-14T09:03:17;9.25;;;3.25;;
6999;SDS011;3540;53.242;10.408;2023-06-14T09:05:45;5.07;;;3.17;;
6999;SDS011;3540;53.242;10.408;2023-06-14T09:08:11;12.40;;;4.20;;
6999;SDS011;3540;53.242;10.408;2023-06-14T09:10:37;4.10;;;3.10;;
6999;SDS011;3540;53.242;10.408;2023-06-14T09:13:05;6.93;;;3.00;;
6999;SDS011;3540;53.242;10.408;2023-06-14T09:15:31;9.73;;;3.27;;
6999;SDS011;3540;53.242;10.408;2023-06-14T09:18:00;5.53;;;3.33;;
6999;SDS011;3540;53.242;10.408;2023-06-14T09:20:28;4.10;;;3.00;;
6999;SDS011;3540;53.242;10.408;2023-06-14T09:22:55;7.37;;;3.33;;
6999;SDS011;3540;53.242;10.408;2023-06-14T09:25:21;3.93;;;2.80;;
6999;SDS011;3540;53.242;10.408;2023-06-14T09:27:47;4.53;;;3.13;;
6999;SDS011;3540;53.242;10.408;2023-06-14T09:30:13;4.47;;;3.33;;
6999;SDS011;3540;53.242;10.408;2023-06-14T09:32:39;8.82;;;3.20;;
6999;SDS011;3540;53.242;10.408;2023-06-14T09:35:08;5.45;;;3.28;;
6999;SDS011;3540;53.242;10.408;2023-06-14T09:37:34;7.30;;;3.37;;
6999;SDS011;3540;53.242;10.408;2023-06-14T09:40:00;9.00;;;3.30;;
6999;SDS011;3540;53.242;10.408;2023-06-14T09:42:26;6.03;;;3.37;;
6999;SDS011;3540;53.242;10.408;2023-06-14T09:44:53;5.78;;;3.10;;
6999;SDS011;3540;53.242;10.408;2023-06-14T09:47:20;11.83;;;3.40;;
6999;SDS011;3540;53.242;10.408;2023-06-14T09:49:47;5.15;;;2.90;;
6999;SDS011;3540;53.242;10.408;2023-06-14T09:52:19;4.93;;;3.20;;
6999;SDS011;3540;53.242;10.408;2023-06-14T09:54:46;6.55;;;2.80;;
6999;SDS011;3540;53.242;10.408;2023-06-14T09:57:13;5.53;;;3.22;;
6999;SDS011;3540;53.242;10.408;2023-06-14T09:59:41;9.63;;;3.30;;
6999;SDS011;3540;53.242;10.408;2023-06-14T10:02:28;8.60;;;3.25;;
6999;SDS011;3540;53.242;10.408;2023-06-14T10:05:06;7.45;;;3.47;;
6999;SDS011;3540;53.242;10.408;2023-06-14T10:10:20;8.63;;;3.20;;
6999;SDS011;3540;53.242;10.408;2023-06-14T10:12:46;3.95;;;2.70;;
6999;SDS011;3540;53.242;10.408;2023-06-14T10:15:15;5.72;;;3.40;;
6999;SDS011;3540;53.242;10.408;2023-06-14T10:17:47;9.60;;;3.30;;
6999;SDS011;3540;53.242;10.408;2023-06-14T10:20:28;9.13;;;3.33;;
6999;SDS011;3540;53.242;10.408;2023-06-14T10:23:10;5.00;;;3.20;;
6999;SDS011;3540;53.242;10.408;2023-06-14T10:25:44;8.63;;;3.25;;
6999;SDS011;3540;53.242;10.408;2023-06-14T10:28:15;8.55;;;3.30;;
6999;SDS011;3540;53.242;10.408;2023-06-14T10:33:49;17.30;;;3.33;;
6999;SDS011;3540;53.242;10.408;2023-06-14T10:36:24;10.13;;;3.08;;
6999;SDS011;3540;53.242;10.408;2023-06-14T10:41:40;7.20;;;3.20;;
6999;SDS011;3540;53.242;10.408;2023-06-14T10:44:52;15.73;;;3.47;;
6999;SDS011;3540;53.242;10.408;2023-06-14T10:46:55;8.82;;;3.03;;
6999;SDS011;3540;53.242;10.408;2023-06-14T10:49:42;5.65;;;3.10;;
6999;SDS011;3540;53.242;10.408;2023-06-14T10:52:13;7.03;;;3.15;;
6999;SDS011;3540;53.242;10.408;2023-06-14T10:55:02;9.07;;;3.42;;
6999;SDS011;3540;53.242;10.408;2023-06-14T11:00:24;8.77;;;4.70;;
6999;SDS011;3540;53.242;10.408;2023-06-14T11:05:26;7.95;;;3.17;;
6999;SDS011;3540;53.242;10.408;2023-06-14T11:10:48;6.07;;;3.17;;
6999;SDS011;3540;53.242;10.408;2023-06-14T11:13:18;4.80;;;2.97;;
6999;SDS011;3540;53.242;10.408;2023-06-14T11:15:44;10.40;;;3.10;;
6999;SDS011;3540;53.242;10.408;2023-06-14T11:18:14;8.77;;;3.15;;
6999;SDS011;3540;53.242;10.408;2023-06-14T11:20:41;7.63;;;2.88;;
6999;SDS011;3540;53.242;10.408;2023-06-14T11:23:07;6.28;;;3.10;;
6999;SDS011;3540;53.242;10.408;2023-06-14T11:25:32;6.38;;;3.22;;
6999;SDS011;3540;53.242;10.408;2023-06-14T11:27:58;5.40;;;2.88;;
6999;SDS011;3540;53.242;10.408;2023-06-14T11:30:24;6.45;;;2.90;;
6999;SDS011;3540;53.242;10.408;2023-06-14T11:32:51;11.65;;;3.25;;
6999;SDS011;3540;53.242;10.408;2023-06-14T11:35:17;5.70;;;3.10;;
6999;SDS011;3540;53.242;10.408;2023-06-14T11:37:44;7.00;;;3.10;;
6999;SDS011;3540;53.242;10.408;2023-06-14T11:40:10;5.68;;;3.00;;
6999;SDS011;3540;53.242;10.408;2023-06-14T11:42:37;4.38;;;2.92;;
6999;SDS011;3540;53.242;10.408;2023-06-14T11:45:04;6.43;;;3.40;;
6999;SDS011;3540;53.242;10.408;2023-06-14T11:47:32;5.32;;;3.10;;
6999;SDS011;3540;53.242;10.408;2023-06-14T11:49:59;6.93;;;2.92;;
6999;SDS011;3540;53.242;10.408;2023-06-14T11:52:25;8.02;;;2.83;;
6999;SDS011;3540;53.242;10.408;2023-06-14T11:54:51;7.65;;;3.40;;
6999;SDS011;3540;53.242;10.408;2023-06-14T11:57:17;5.60;;;3.30;;
6999;SDS011;3540;53.242;10.408;2023-06-14T11:59:44;12.65;;;3.10;;
6999;SDS011;3540;53.242;10.408;2023-06-14T12:02:13;4.47;;;2.85;;
6999;SDS011;3540;53.242;10.408;2023-06-14T12:04:43;6.95;;;3.08;;
6999;SDS011;3540;53.242;10.408;2023-06-14T12:07:10;11.65;;;3.03;;
6999;SDS011;3540;53.242;10.408;2023-06-14T12:10:04;8.52;;;3.08;;
6999;SDS011;3540;53.242;10.408;2023-06-14T12:12:34;6.50;;;2.88;;
6999;SDS011;3540;53.242;10.408;2023-06-14T12:15:02;12.23;;;3.17;;
6999;SDS011;3540;53.242;10.408;2023-06-14T12:17:33;5.60;;;2.70;;
6999;SDS011;3540;53.242;10.408;2023-06-14T12:20:04;6.57;;;3.22;;
6999;SDS011;3540;53.242;10.408;2023-06-14T12:22:50;7.10;;;3.22;;
6999;SDS011;3540;53.242;10.408;2023-06-14T12:25:28;4.88;;;3.00;;
6999;SDS011;3540;53.242;10.408;2023-06-14T12:28:18;7.65;;;2.90;;
6999;SDS011;3540;53.242;10.408;2023-06-14T12:30:44;8.82;;;2.75;;
6999;SDS011;3540;53.242;10.408;2023-06-14T12:33:10;7.13;;;2.90;;
6999;SDS011;3540;53.242;10.408;2023-06-14T12:35:36;5.00;;;2.67;;
6999;SDS011;3540;53.242;10.408;2023-06-14T12:38:01;5.63;;;2.45;;
6999;SDS011;3540;53.242;10.408;2023-06-14T12:40:28;3.42;;;2.63;;
6999;SDS011;3540;53.242;10.408;2023-06-14T12:42:54;7.30;;;3.03;;
6999;SDS011;3540;53.242;10.408;2023-06-14T12:45:19;7.13;;;3.00;;
6999;SDS011;3540;53.242;10.408;2023-06-14T12:47:45;13.55;;;2.92;;
6999;SDS011;3540;53.242;10.408;2023-06-14T12:50:11;12.13;;;4.00;;
6999;SDS011;3540;53.242;10.408;2023-06-14T12:52:37;5.85;;;2.90;;
6999;SDS011;3540;53.242;10.408;2023-06-14T12:55:03;6.60;;;2.65;;
6999;SDS011;3540;53.242;10.408;2023-06-14T12:57:29;10.50;;;5.05;;
6999;SDS011;3540;53.242;10.408;2023-06-14T12:59:55;6.25;;;3.15;;
6999;SDS011;3540;53.242;10.408;2023-06-14T13:02:20;5.80;;;2.50;;
6999;SDS011;3540;53.242;10.408;2023-06-14T13:04:48;11.05;;;2.88;;
6999;SDS011;3540;53.242;10.408;2023-06-14T13:07:14;6.03;;;2.78;;
6999;SDS011;3540;53.242;10.408;2023-06-14T13:09:40;5.95;;;2.65;;
6999;SDS011;3540;53.242;10.408;2023-06-14T13:12:06;5.13;;;2.70;;
6999;SDS011;3540;53.242;10.408;2023-06-14T13:14:32;6.80;;;2.75;;
6999;SDS011;3540;53.242;10.408;2023-06-14T13:16:58;8.57;;;2.90;;
6999;SDS011;3540;53.242;10.408;2023-06-14T13:19:24;10.02;;;2.70;;
6999;SDS011;3540;53.242;10.408;2023-06-14T13:21:50;8.65;;;2.80;;
6999;SDS011;3540;53.242;10.408;2023-06-14T13:24:15;9.23;;;2.55;;
6999;SDS011;3540;53.242;10.408;2023-06-14T13:26:41;4.80;;;2.70;;
6999;SDS011;3540;53.242;10.408;2023-06-14T13:29:07;14.02;;;2.38;;
6999;SDS011;3540;53.242;10.408;2023-06-14T13:31:32;4.80;;;2.83;;
6999;SDS011;3540;53.242;10.408;2023-06-14T13:33:58;4.07;;;2.67;;
6999;SDS011;3540;53.242;10.408;2023-06-14T13:36:24;4.13;;;2.90;;
6999;SDS011;3540;53.242;10.408;2023-06-14T13:38:49;7.05;;;2.90;;
6999;SDS011;3540;53.242;10.408;2023-06-14T13:41:17;6.80;;;2.90;;
6999;SDS011;3540;53.242;10.408;2023-06-14T13:43:43;5.18;;;2.97;;
6999;SDS011;3540;53.242;10.408;2023-06-14T13:46:08;5.82;;;2.72;;
6999;SDS011;3540;53.242;10.408;2023-06-14T13:48:34;3.45;;;2.38;;
6999;SDS011;3540;53.242;10.408;2023-06-14T13:51:00;8.25;;;2.70;;
6999;SDS011;3540;53.242;10.408;2023-06-14T13:53:25;6.90;;;3.20;;
6999;SDS011;3540;53.242;10.408;2023-06-14T13:55:51;8.90;;;2.95;;
6999;SDS011;3540;53.242;10.408;2023-06-14T13:58:17;3.53;;;2.80;;
6999;SDS011;3540;53.242;10.408;2023-06-14T14:00:44;8.40;;;2.78;;
6999;SDS011;3540;53.242;10.408;2023-06-14T14:03:09;5.70;;;2.90;;
6999;SDS011;3540;53.242;10.408;2023-06-14T14:05:36;6.45;;;2.92;;
6999;SDS011;3540;53.242;10.408;2023-06-14T14:08:02;6.72;;;2.97;;
6999;SDS011;3540;53.242;10.408;2023-06-14T14:10:28;9.75;;;2.90;;
6999;SDS011;3540;53.242;10.408;2023-06-14T14:12:54;7.30;;;2.58;;
6999;SDS011;3540;53.242;10.408;2023-06-14T14:15:20;9.13;;;2.75;;
6999;SDS011;3540;53.242;10.408;2023-06-14T14:17:45;7.20;;;2.58;;
6999;SDS011;3540;53.242;10.408;2023-06-14T14:20:12;8.77;;;3.03;;
6999;SDS011;3540;53.242;10.408;2023-06-14T14:22:40;5.00;;;2.67;;
6999;SDS011;3540;53.242;10.408;2023-06-14T14:25:09;4.32;;;3.03;;
6999;SDS011;3540;53.242;10.408;2023-06-14T14:27:35;5.25;;;2.90;;
6999;SDS011;3540;53.242;10.408;2023-06-14T14:30:02;6.47;;;2.88;;
6999;SDS011;3540;53.242;10.408;2023-06-14T14:32:28;8.23;;;3.00;;
6999;SDS011;3540;53.242;10.408;2023-06-14T14:34:54;7.88;;;2.63;;
6999;SDS011;3540;53.242;10.408;2023-06-14T14:37:20;5.70;;;2.90;;
6999;SDS011;3540;53.242;10.408;2023-06-14T14:39:46;4.43;;;3.00;;
6999;SDS011;3540;53.242;10.408;2023-06-14T14:42:11;3.85;;;2.72;;
6999;SDS011;3540;53.242;10.408;2023-06-14T14:44:38;3.78;;;2.88;;
6999;SDS011;3540;53.242;10.408;2023-06-14T14:47:04;6.80;;;3.08;;
6999;SDS011;3540;53.242;10.408;2023-06-14T14:49:30;7.88;;;2.75;;
6999;SDS011;3540;53.242;10.408;2023-06-14T14:51:57;4.20;;;3.08;;
6999;SDS011;3540;53.242;10.408;2023-06-14T14:54:22;6.53;;;3.10;;
6999;SDS011;3540;53.242;10.408;2023-06-14T14:56:50;4.30;;;2.85;;
6999;SDS011;3540;53.242;10.408;2023-06-14T14:59:15;6.07;;;2.75;;
6999;SDS011;3540;53.242;10.408;2023-06-14T15:01:41;5.90;;;2.95;;
6999;SDS011;3540;53.242;10.408;2023-06-14T15:04:06;5.38;;;2.78;;
6999;SDS011;3540;53.242;10.408;2023-06-14T15:06:32;5.55;;;2.83;;
6999;SDS011;3540;53.242;10.408;2023-06-14T15:09:00;5.55;;;3.10;;
6999;SDS011;3540;53.242;10.408;2023-06-14T15:11:26;3.90;;;2.80;;
6999;SDS011;3540;53.242;10.408;2023-06-14T15:13:52;11.05;;;2.63;;
6999;SDS011;3540;53.242;10.408;2023-06-14T15:16:17;7.88;;;3.08;;
6999;SDS011;3540;53.242;10.408;2023-06-14T15:18:43;10.68;;;2.80;;